createdAt,value
2022-08-22T00:01:26.513Z,100.00
2022-08-22T00:02:48.149Z,78.44
2022-08-22T00:02:53.684Z,93.65
2022-08-22T00:02:54.799Z,100.00
2022-08-22T00:02:56.067Z,65.31
2022-08-22T00:02:59.712Z,64.67
2022-08-22T00:03:06.480Z,100.00
2022-08-22T00:04:24.479Z,100.00
2022-08-22T00:06:57.449Z,100.00
2022-08-22T00:09:55.135Z,100.00
2022-08-22T00:12:31.622Z,100.00
2022-08-22T00:15:31.570Z,100.00
2022-08-22T00:18:45.952Z,100.00
2022-08-22T00:21:33.083Z,100.00
2022-08-22T00:24:31.181Z,100.00
2022-08-22T00:27:53.553Z,100.00
2022-08-22T00:30:20.868Z,100.00
2022-08-22T00:32:56.895Z,100.00
2022-08-22T00:35:44.410Z,100.00
2022-08-22T00:38:43.106Z,100.00
2022-08-22T00:41:50.458Z,100.00
2022-08-22T00:44:57.693Z,100.00
2022-08-22T00:48:08.915Z,100.00
2022-08-22T00:51:01.464Z,100.00
2022-08-22T00:53:41.285Z,100.00
2022-08-22T00:56:39.167Z,100.00
2022-08-22T00:59:23.603Z,100.00
2022-08-22T01:02:19.716Z,100.00
2022-08-22T01:05:34.264Z,100.00
2022-08-22T01:08:36.879Z,100.00
2022-08-22T01:12:00.081Z,100.00
2022-08-22T01:14:46.702Z,100.00
2022-08-22T01:17:51.695Z,100.00
2022-08-22T01:21:15.231Z,100.00
2022-08-22T01:24:29.583Z,100.00
2022-08-22T01:27:36.051Z,100.00
2022-08-22T01:30:53.341Z,100.00
2022-08-22T01:33:38.942Z,100.00
2022-08-22T01:36:45.517Z,100.00
2022-08-22T01:39:40.187Z,100.00
2022-08-22T01:42:35.653Z,100.00
2022-08-22T01:45:19.818Z,100.00
2022-08-22T01:47:56.144Z,100.00
2022-08-22T01:50:50.882Z,100.00
2022-08-22T01:53:30.347Z,100.00
2022-08-22T01:56:15.135Z,100.00
2022-08-22T01:59:27.578Z,100.00
2022-08-22T02:02:26.814Z,100.00
2022-08-22T02:05:37.152Z,100.00
2022-08-22T02:08:38.689Z,100.00
2022-08-22T02:11:13.731Z,100.00
2022-08-22T02:14:33.843Z,100.00
2022-08-22T02:17:26.407Z,100.00
2022-08-22T02:20:11.115Z,100.00
2022-08-22T02:23:07.982Z,100.00
2022-08-22T02:26:02.212Z,100.00
2022-08-22T02:29:01.729Z,100.00
2022-08-22T02:32:03.069Z,100.00
2022-08-22T02:35:09.161Z,100.00
2022-08-22T02:38:08.351Z,100.00
2022-08-22T02:41:04.109Z,100.00
2022-08-22T02:43:51.616Z,100.00
2022-08-22T02:47:06.850Z,100.00
2022-08-22T02:49:54.383Z,100.00
2022-08-22T02:52:53.555Z,100.00
2022-08-22T02:55:35.613Z,100.00
2022-08-22T02:58:15.630Z,100.00
2022-08-22T03:00:52.194Z,100.00
2022-08-22T03:03:28.966Z,100.00
2022-08-22T03:06:03.255Z,100.00
2022-08-22T03:08:38.939Z,100.00
2022-08-22T03:11:26.985Z,100.00
2022-08-22T03:14:16.416Z,100.00
2022-08-22T03:16:55.796Z,100.00
2022-08-22T03:20:00.427Z,100.00
2022-08-22T03:22:48.781Z,100.00
2022-08-22T03:25:52.859Z,100.00
2022-08-22T03:28:37.105Z,100.00
2022-08-22T03:31:25.626Z,100.00
2022-08-22T03:34:22.538Z,100.00
2022-08-22T03:37:37.742Z,100.00
2022-08-22T03:40:19.548Z,100.00
2022-08-22T03:43:08.390Z,100.00
2022-08-22T03:46:26.065Z,100.00
2022-08-22T03:49:26.644Z,100.00
2022-08-22T03:52:28.802Z,100.00
2022-08-22T03:55:23.290Z,100.00
2022-08-22T03:58:28.528Z,100.00
2022-08-22T04:01:23.383Z,100.00
2022-08-22T04:04:24.163Z,100.00
2022-08-22T04:07:35.214Z,100.00
2022-08-22T04:10:38.028Z,100.00
2022-08-22T04:14:00.919Z,100.00
2022-08-22T04:17:07.954Z,100.00
2022-08-22T04:19:46.797Z,100.00
2022-08-22T04:22:19.993Z,100.00
2022-08-22T04:25:12.116Z,100.00
2022-08-22T04:28:13.494Z,100.00
2022-08-22T04:30:47.679Z,100.00
2022-08-22T04:33:32.378Z,100.00
2022-08-22T04:36:14.903Z,100.00
2022-08-22T04:38:44.880Z,100.00
2022-08-22T04:41:20.378Z,100.00
2022-08-22T04:44:04.212Z,100.00
2022-08-22T04:46:52.874Z,100.00
2022-08-22T04:49:47.909Z,100.00
2022-08-22T04:52:48.826Z,100.00
2022-08-22T04:55:29.126Z,100.00
2022-08-22T04:58:31.754Z,100.00
2022-08-22T05:01:25.633Z,100.00
2022-08-22T05:04:02.337Z,100.00
2022-08-22T05:06:36.373Z,100.00
2022-08-22T05:09:16.002Z,100.00
2022-08-22T05:11:46.033Z,100.00
2022-08-22T05:14:27.619Z,100.00
2022-08-22T05:16:57.041Z,100.00
2022-08-22T05:19:34.601Z,100.00
2022-08-22T05:22:03.760Z,100.00
2022-08-22T05:24:41.042Z,100.00
2022-08-22T05:27:42.247Z,100.00
2022-08-22T05:30:16.888Z,100.00
2022-08-22T05:32:55.176Z,100.00
2022-08-22T05:35:36.548Z,100.00
2022-08-22T05:38:07.029Z,100.00
2022-08-22T05:40:37.838Z,100.00
2022-08-22T05:43:10.497Z,100.00
2022-08-22T05:45:40.756Z,100.00
2022-08-22T05:48:20.986Z,100.00
2022-08-22T05:51:07.181Z,100.00
2022-08-22T05:53:44.005Z,100.00
2022-08-22T05:56:28.761Z,100.00
2022-08-22T05:59:09.318Z,100.00
2022-08-22T06:01:56.015Z,100.00
2022-08-22T06:04:44.894Z,100.00
2022-08-22T06:07:47.500Z,100.00
2022-08-22T06:10:32.329Z,100.00
2022-08-22T06:13:32.448Z,100.00
2022-08-22T06:16:37.016Z,100.00
2022-08-22T06:19:19.493Z,100.00
2022-08-22T06:21:51.050Z,100.00
2022-08-22T06:24:26.768Z,100.00
2022-08-22T06:27:01.581Z,100.00
2022-08-22T06:29:48.173Z,100.00
2022-08-22T06:32:27.880Z,100.00
2022-08-22T06:36:00.845Z,100.00
2022-08-22T06:38:33.515Z,100.00
2022-08-22T06:41:07.089Z,100.00
2022-08-22T06:43:41.625Z,100.00
2022-08-22T06:46:11.114Z,100.00
2022-08-22T06:48:38.341Z,100.00
2022-08-22T06:51:08.591Z,100.00
2022-08-22T06:53:47.719Z,100.00
2022-08-22T06:56:23.850Z,100.00
2022-08-22T06:58:54.867Z,100.00
2022-08-22T07:01:26.315Z,100.00
2022-08-22T07:03:59.355Z,100.00
2022-08-22T07:06:41.975Z,100.00
2022-08-22T07:09:26.832Z,100.00
2022-08-22T07:11:57.917Z,100.00
2022-08-22T07:14:48.370Z,100.00
2022-08-22T07:17:32.238Z,100.00
2022-08-22T07:20:25.157Z,100.00
2022-08-22T07:23:03.504Z,100.00
2022-08-22T07:25:32.286Z,100.00
2022-08-22T07:28:51.423Z,100.00
2022-08-22T07:31:35.330Z,100.00
2022-08-22T07:34:31.148Z,100.00
2022-08-22T07:37:40.697Z,100.00
2022-08-22T07:40:35.968Z,100.00
2022-08-22T07:43:31.398Z,100.00
2022-08-22T07:46:00.609Z,100.00
2022-08-22T07:48:33.952Z,100.00
2022-08-22T07:51:18.299Z,100.00
2022-08-22T07:54:00.978Z,100.00
2022-08-22T07:56:38.355Z,100.00
2022-08-22T07:59:18.537Z,100.00
2022-08-22T08:01:51.290Z,100.00
2022-08-22T08:04:24.832Z,100.00
2022-08-22T08:06:56.012Z,100.00
2022-08-22T08:09:28.423Z,100.00
2022-08-22T08:11:55.886Z,100.00
2022-08-22T08:14:25.719Z,100.00
2022-08-22T08:17:06.042Z,100.00
2022-08-22T08:19:41.040Z,100.00
2022-08-22T08:22:08.213Z,100.00
2022-08-22T08:24:45.358Z,100.00
2022-08-22T08:27:36.897Z,100.00
2022-08-22T08:30:19.315Z,100.00
2022-08-22T08:32:57.465Z,100.00
2022-08-22T08:36:03.477Z,100.00
2022-08-22T08:38:58.934Z,100.00
2022-08-22T08:41:38.497Z,100.00
2022-08-22T08:44:17.346Z,100.00
2022-08-22T08:47:28.313Z,100.00
2022-08-22T08:50:33.855Z,100.00
2022-08-22T08:53:31.259Z,100.00
2022-08-22T08:56:19.999Z,100.00
2022-08-22T08:59:28.755Z,100.00
2022-08-22T09:02:34.912Z,100.00
2022-08-22T09:05:15.388Z,100.00
2022-08-22T09:08:19.948Z,100.00
2022-08-22T09:11:28.364Z,100.00
2022-08-22T09:14:44.693Z,100.00
2022-08-22T09:17:40.267Z,100.00
2022-08-22T09:20:41.558Z,100.00
2022-08-22T09:23:44.934Z,100.00
2022-08-22T09:26:30.887Z,100.00
2022-08-22T09:29:29.077Z,100.00
2022-08-22T09:32:16.651Z,100.00
2022-08-22T09:35:05.008Z,100.00
2022-08-22T09:38:16.099Z,100.00
2022-08-22T09:41:06.823Z,100.00
2022-08-22T09:44:17.906Z,93.87
2022-08-22T09:46:58.786Z,91.43
2022-08-22T09:49:38.592Z,91.61
2022-08-22T09:52:40.397Z,89.80
2022-08-22T09:55:35.538Z,90.20
2022-08-22T09:58:18.609Z,89.19
2022-08-22T10:01:00.064Z,88.69
2022-08-22T10:03:45.232Z,88.67
2022-08-22T10:06:50.484Z,87.49
2022-08-22T10:09:31.209Z,85.55
2022-08-22T10:12:05.244Z,84.53
2022-08-22T10:15:16.078Z,82.11
2022-08-22T10:18:18.400Z,79.10
2022-08-22T10:21:20.462Z,76.23
2022-08-22T10:24:00.856Z,75.46
2022-08-22T10:26:58.111Z,75.10
2022-08-22T10:30:08.126Z,74.57
2022-08-22T10:32:55.625Z,70.78
2022-08-22T10:35:35.078Z,72.81
2022-08-22T10:38:20.597Z,72.00
2022-08-22T10:41:25.973Z,71.98
2022-08-22T10:44:13.156Z,69.83
2022-08-22T10:47:05.554Z,68.79
2022-08-22T10:49:56.004Z,68.48
2022-08-22T10:52:32.485Z,68.04
2022-08-22T10:55:12.636Z,66.20
2022-08-22T10:57:53.306Z,66.08
2022-08-22T11:00:49.976Z,63.47
2022-08-22T11:03:33.448Z,62.60
2022-08-22T11:06:07.197Z,57.12
2022-08-22T11:09:04.179Z,56.88
2022-08-22T11:11:48.398Z,58.23
2022-08-22T11:14:45.495Z,57.57
2022-08-22T11:17:58.742Z,57.36
2022-08-22T11:20:42.555Z,57.64
2022-08-22T11:23:39.215Z,56.43
2022-08-22T11:26:33.782Z,49.80
2022-08-22T11:29:51.455Z,49.04
2022-08-22T11:32:49.662Z,49.54
2022-08-22T11:35:28.352Z,50.23
2022-08-22T11:38:02.972Z,43.45
2022-08-22T11:40:37.740Z,44.95
2022-08-22T11:43:32.478Z,47.11
2022-08-22T11:46:19.904Z,45.35
2022-08-22T11:49:09.281Z,44.85
2022-08-22T11:52:00.277Z,40.67
2022-08-22T11:54:45.625Z,42.09
2022-08-22T11:57:20.220Z,39.73
2022-08-22T12:00:15.416Z,41.39
2022-08-22T12:03:12.872Z,40.23
2022-08-22T12:05:46.880Z,39.48
2022-08-22T12:08:34.082Z,41.06
2022-08-22T12:11:26.276Z,40.05
2022-08-22T12:14:06.362Z,39.14
2022-08-22T12:17:21.275Z,40.21
2022-08-22T12:20:54.695Z,41.70
2022-08-22T12:23:49.239Z,42.35
2022-08-22T12:27:01.480Z,41.29
2022-08-22T12:29:47.990Z,40.33
2022-08-22T12:32:49.060Z,39.41
2022-08-22T12:35:42.025Z,39.62
2022-08-22T12:38:44.162Z,39.10
2022-08-22T12:41:49.076Z,39.05
2022-08-22T12:44:37.010Z,40.52
2022-08-22T12:47:18.951Z,40.81
2022-08-22T12:50:23.965Z,41.56
2022-08-22T12:53:51.258Z,41.75
2022-08-22T12:56:47.448Z,41.84
2022-08-22T12:59:33.653Z,39.48
2022-08-22T13:02:14.653Z,40.66
2022-08-22T13:04:56.832Z,38.81
2022-08-22T13:07:32.837Z,40.00
2022-08-22T13:10:14.634Z,37.94
2022-08-22T13:12:50.301Z,37.49
2022-08-22T13:15:33.306Z,38.83
2022-08-22T13:18:28.372Z,38.03
2022-08-22T13:20:58.339Z,38.11
2022-08-22T13:23:39.752Z,38.93
2022-08-22T13:26:26.988Z,37.76
2022-08-22T13:29:42.794Z,38.27
2022-08-22T13:32:44.366Z,39.22
2022-08-22T13:35:24.549Z,37.04
2022-08-22T13:37:58.897Z,36.85
2022-08-22T13:40:32.143Z,38.85
2022-08-22T13:43:12.890Z,39.15
2022-08-22T13:45:56.943Z,37.78
2022-08-22T13:48:43.741Z,36.85
2022-08-22T13:51:21.801Z,36.55
2022-08-22T13:54:10.839Z,35.80
2022-08-22T13:57:03.099Z,36.98
2022-08-22T13:59:51.499Z,36.45
2022-08-22T14:02:51.159Z,36.83
2022-08-22T14:05:34.354Z,38.43
2022-08-22T14:08:18.618Z,39.53
2022-08-22T14:11:38.997Z,37.66
2022-08-22T14:14:08.395Z,38.90
2022-08-22T14:16:50.640Z,39.23
2022-08-22T14:19:53.059Z,39.30
2022-08-22T14:22:31.799Z,38.61
2022-08-22T14:25:18.883Z,38.49
2022-08-22T14:27:57.639Z,38.97
2022-08-22T14:30:50.972Z,38.76
2022-08-22T14:33:40.916Z,38.69
2022-08-22T14:36:23.870Z,39.12
2022-08-22T14:38:57.107Z,40.01
2022-08-22T14:41:56.403Z,40.06
2022-08-22T14:44:25.695Z,37.84
2022-08-22T14:47:01.006Z,37.72
2022-08-22T14:49:52.982Z,39.06
2022-08-22T14:52:36.193Z,37.89
2022-08-22T14:55:14.664Z,36.40
2022-08-22T14:58:05.932Z,37.26
2022-08-22T15:00:44.995Z,38.06
2022-08-22T15:03:27.662Z,38.66
2022-08-22T15:06:02.067Z,38.12
2022-08-22T15:08:46.383Z,38.43
2022-08-22T15:11:20.906Z,38.18
2022-08-22T15:14:01.971Z,39.81
2022-08-22T15:16:40.377Z,39.84
2022-08-22T15:19:24.009Z,37.74
2022-08-22T15:22:13.550Z,36.66
2022-08-22T15:24:57.522Z,36.99
2022-08-22T15:27:27.682Z,37.70
2022-08-22T15:30:05.019Z,38.76
2022-08-22T15:32:41.947Z,40.19
2022-08-22T15:35:16.599Z,40.39
2022-08-22T15:38:05.048Z,40.54
2022-08-22T15:40:41.940Z,38.74
2022-08-22T15:43:34.914Z,39.73
2022-08-22T15:46:31.115Z,36.99
2022-08-22T15:49:30.855Z,37.63
2022-08-22T15:52:00.922Z,38.74
2022-08-22T15:55:03.378Z,38.96
2022-08-22T15:57:49.242Z,39.63
2022-08-22T16:00:29.131Z,39.69
2022-08-22T16:03:14.324Z,40.07
2022-08-22T16:05:55.161Z,38.23
2022-08-22T16:08:33.237Z,38.58
2022-08-22T16:11:03.203Z,39.07
2022-08-22T16:13:29.986Z,39.42
2022-08-22T16:16:03.940Z,39.29
2022-08-22T16:18:33.475Z,39.56
2022-08-22T16:21:29.572Z,39.56
2022-08-22T16:23:56.683Z,39.08
2022-08-22T16:26:31.175Z,39.68
2022-08-22T16:29:04.055Z,39.47
2022-08-22T16:31:56.018Z,39.86
2022-08-22T16:34:33.689Z,40.07
2022-08-22T16:37:03.421Z,39.72
2022-08-22T16:39:43.824Z,41.33
2022-08-22T16:42:13.911Z,39.90
2022-08-22T16:45:10.161Z,38.95
2022-08-22T16:48:24.249Z,39.38
2022-08-22T16:51:23.799Z,39.67
2022-08-22T16:54:08.683Z,39.18
2022-08-22T16:56:56.533Z,39.33
2022-08-22T16:59:44.331Z,39.28
2022-08-22T17:02:51.284Z,39.57
2022-08-22T17:05:42.010Z,40.21
2022-08-22T17:08:25.749Z,40.66
2022-08-22T17:11:56.147Z,39.92
2022-08-22T17:14:39.074Z,41.04
2022-08-22T17:17:25.735Z,40.82
2022-08-22T17:20:01.414Z,40.93
2022-08-22T17:22:47.113Z,40.22
2022-08-22T17:25:36.542Z,41.28
2022-08-22T17:28:19.778Z,41.27
2022-08-22T17:31:02.362Z,42.21
2022-08-22T17:33:40.907Z,41.61
2022-08-22T17:36:27.083Z,42.52
2022-08-22T17:39:21.573Z,43.30
2022-08-22T17:42:08.367Z,42.56
2022-08-22T17:44:53.619Z,43.22
2022-08-22T17:47:30.197Z,42.81
2022-08-22T17:50:23.377Z,44.00
2022-08-22T17:53:06.334Z,43.58
2022-08-22T17:55:55.032Z,44.21
2022-08-22T17:58:31.870Z,44.02
2022-08-22T18:01:16.720Z,44.32
2022-08-22T18:03:52.747Z,45.11
2022-08-22T18:06:26.305Z,45.43
2022-08-22T18:12:02.772Z,46.17
2022-08-22T18:15:00.282Z,46.22
2022-08-22T18:17:40.909Z,47.14
2022-08-22T18:20:34.948Z,48.30
2022-08-22T18:23:51.605Z,49.36
2022-08-22T18:26:59.645Z,50.33
2022-08-22T18:29:52.904Z,50.84
2022-08-22T18:32:26.761Z,53.35
2022-08-22T18:35:12.569Z,55.65
2022-08-22T18:38:19.320Z,56.25
2022-08-22T18:40:58.069Z,57.34
2022-08-22T18:43:43.366Z,58.52
2022-08-22T18:46:31.727Z,58.03
2022-08-22T18:49:15.436Z,58.61
2022-08-22T18:51:43.173Z,59.34
2022-08-22T18:54:11.385Z,59.83
2022-08-22T18:56:57.358Z,60.20
2022-08-22T19:00:00.513Z,61.65
2022-08-22T19:02:57.671Z,63.20
2022-08-22T19:06:01.313Z,64.18
2022-08-22T19:08:31.501Z,64.86
2022-08-22T19:11:36.409Z,65.57
2022-08-22T19:14:22.980Z,65.11
2022-08-22T19:17:23.335Z,66.32
2022-08-22T19:20:16.688Z,67.06
2022-08-22T19:22:44.690Z,67.17
2022-08-22T19:25:26.388Z,66.51
2022-08-22T19:28:14.185Z,66.05
2022-08-22T19:30:51.185Z,66.66
2022-08-22T19:33:34.533Z,67.50
2022-08-22T19:36:31.863Z,67.81
2022-08-22T19:39:11.131Z,68.98
2022-08-22T19:41:52.307Z,71.07
2022-08-22T19:44:18.969Z,70.32
2022-08-22T19:47:18.060Z,70.90
2022-08-22T19:50:05.738Z,71.54
2022-08-22T19:52:47.163Z,72.14
2022-08-22T19:55:28.801Z,72.28
2022-08-22T19:58:32.076Z,72.67
2022-08-22T20:01:11.344Z,72.57
2022-08-22T20:03:53.114Z,72.15
2022-08-22T20:06:53.255Z,72.31
2022-08-22T20:09:57.384Z,73.18
2022-08-22T20:12:30.139Z,73.20
2022-08-22T20:14:57.269Z,74.05
2022-08-22T20:17:27.144Z,74.70
2022-08-22T20:20:27.969Z,74.96
2022-08-22T20:23:22.395Z,74.75
2022-08-22T20:25:52.913Z,74.86
2022-08-22T20:28:47.474Z,75.30
2022-08-22T20:31:27.034Z,74.63
2022-08-22T20:34:09.334Z,74.32
2022-08-22T20:36:36.727Z,74.73
2022-08-22T20:39:10.891Z,75.08
2022-08-22T20:41:46.555Z,76.14
2022-08-22T20:44:40.094Z,76.86
2022-08-22T20:47:17.239Z,77.48
2022-08-22T20:49:53.431Z,77.99
2022-08-22T20:52:32.273Z,77.61
2022-08-22T20:54:58.953Z,78.64
2022-08-22T20:57:25.895Z,79.13
2022-08-22T20:59:58.739Z,79.06
2022-08-22T21:02:51.636Z,78.10
2022-08-22T21:05:25.051Z,78.75
2022-08-22T21:08:18.490Z,77.85
2022-08-22T21:11:17.696Z,78.13
2022-08-22T21:13:44.656Z,79.41
2022-08-22T21:16:32.951Z,78.84
2022-08-22T21:19:03.366Z,78.15
2022-08-22T21:21:34.335Z,78.11
2022-08-22T21:24:07.014Z,78.99
2022-08-22T21:26:39.071Z,81.01
2022-08-22T21:29:20.051Z,81.96
2022-08-22T21:31:51.725Z,83.20
2022-08-22T21:34:28.830Z,83.19
2022-08-22T21:37:07.328Z,83.17
2022-08-22T21:39:44.990Z,84.10
2022-08-22T21:42:35.866Z,82.86
2022-08-22T21:45:09.061Z,81.99
2022-08-22T21:47:42.554Z,82.26
2022-08-22T21:50:21.191Z,82.27
2022-08-22T21:52:53.954Z,81.01
2022-08-22T21:55:43.001Z,82.14
2022-08-22T21:58:35.193Z,80.43
2022-08-22T22:01:28.063Z,80.74
2022-08-22T22:03:57.189Z,81.94
2022-08-22T22:06:24.055Z,81.61
2022-08-22T22:08:51.094Z,80.87
2022-08-22T22:11:18.422Z,81.30
2022-08-22T22:13:45.917Z,81.69
2022-08-22T22:16:13.102Z,80.62
2022-08-22T22:18:40.710Z,81.18
2022-08-22T22:21:08.814Z,81.99
2022-08-22T22:23:35.672Z,81.95
2022-08-22T22:26:05.082Z,81.88
2022-08-22T22:28:36.970Z,83.64
2022-08-22T22:31:04.521Z,83.21
2022-08-22T22:33:37.708Z,84.55
2022-08-22T22:36:16.397Z,85.89
2022-08-22T22:38:43.838Z,86.63
2022-08-22T22:41:11.713Z,87.64
2022-08-22T22:43:38.654Z,86.71
2022-08-22T22:46:06.374Z,85.14
2022-08-22T22:48:33.387Z,85.18
2022-08-22T22:51:11.036Z,86.48
2022-08-22T22:53:42.687Z,86.13
2022-08-22T22:56:22.552Z,86.15
2022-08-22T22:59:01.107Z,86.98
2022-08-22T23:01:38.823Z,85.11
2022-08-22T23:04:07.905Z,84.04
2022-08-22T23:06:34.874Z,83.86
2022-08-22T23:09:01.767Z,84.90
2022-08-22T23:11:30.934Z,83.17
2022-08-22T23:13:57.870Z,84.06
2022-08-22T23:16:28.911Z,83.88
2022-08-22T23:18:55.900Z,84.73
2022-08-22T23:21:29.729Z,85.56
2022-08-22T23:24:00.755Z,84.82
2022-08-22T23:26:28.774Z,85.19
2022-08-22T23:28:56.740Z,85.65
2022-08-22T23:31:40.455Z,87.14
2022-08-22T23:34:14.888Z,86.84
2022-08-22T23:36:45.347Z,87.59
2022-08-22T23:39:14.917Z,88.16
2022-08-22T23:41:43.501Z,89.25
2022-08-22T23:44:13.917Z,90.80
2022-08-22T23:46:42.177Z,91.85
2022-08-22T23:49:09.402Z,90.45
2022-08-22T23:51:36.872Z,92.07
2022-08-22T23:54:04.519Z,92.78
2022-08-22T23:56:36.057Z,93.55
2022-08-22T23:59:12.229Z,96.08
